createdAt,value
2018-07-24T00:01:59.714Z,99.90
2018-07-24T00:04:28.361Z,99.90
2018-07-24T00:06:56.902Z,99.90
2018-07-24T00:09:25.480Z,99.90
2018-07-24T00:11:54.045Z,99.90
2018-07-24T00:14:22.692Z,99.90
2018-07-24T00:16:51.182Z,99.90
2018-07-24T00:19:19.738Z,99.90
2018-07-24T00:21:48.268Z,99.90
2018-07-24T00:24:16.847Z,99.90
2018-07-24T00:26:45.370Z,99.90
2018-07-24T00:29:14.055Z,99.90
2018-07-24T00:31:42.555Z,99.90
2018-07-24T00:34:11.055Z,99.90
2018-07-24T00:36:39.674Z,99.90
2018-07-24T00:39:08.378Z,99.90
2018-07-24T00:41:37.484Z,99.90
2018-07-24T00:44:06.257Z,99.90
2018-07-24T00:46:35.146Z,99.90
2018-07-24T00:49:03.969Z,99.90
2018-07-24T00:51:32.514Z,99.90
2018-07-24T00:54:01.035Z,99.90
2018-07-24T00:56:29.520Z,99.90
2018-07-24T00:58:58.078Z,99.90
2018-07-24T01:01:26.555Z,99.90
2018-07-24T01:03:55.027Z,99.90
2018-07-24T01:06:23.737Z,99.90
2018-07-24T01:08:52.197Z,99.90
2018-07-24T01:11:20.683Z,99.90
2018-07-24T01:13:49.394Z,99.90
2018-07-24T01:16:17.938Z,99.90
2018-07-24T01:18:46.418Z,99.90
2018-07-24T01:21:14.958Z,99.90
2018-07-24T01:23:43.455Z,99.90
2018-07-24T01:26:11.939Z,99.90
2018-07-24T01:28:40.574Z,99.90
2018-07-24T01:31:09.086Z,99.90
2018-07-24T01:33:37.722Z,99.90
2018-07-24T01:36:06.207Z,99.90
2018-07-24T01:38:34.717Z,99.90
2018-07-24T01:41:03.342Z,99.90
2018-07-24T01:43:31.984Z,99.90
2018-07-24T01:46:00.439Z,99.90
2018-07-24T01:48:28.882Z,99.90
2018-07-24T01:50:57.615Z,99.90
2018-07-24T01:55:54.295Z,99.90
2018-07-24T01:58:22.871Z,99.90
2018-07-24T02:00:51.366Z,99.90
2018-07-24T02:03:19.902Z,99.90
2018-07-24T02:05:48.375Z,99.90
2018-07-24T02:08:16.967Z,99.90
2018-07-24T02:10:45.472Z,99.90
2018-07-24T02:13:14.105Z,99.90
2018-07-24T02:15:42.662Z,99.90
2018-07-24T02:18:11.151Z,99.90
2018-07-24T02:23:13.618Z,99.90
2018-07-24T02:25:42.143Z,99.90
2018-07-24T02:28:10.595Z,99.90
2018-07-24T02:30:39.291Z,99.90
2018-07-24T02:33:07.763Z,99.90
2018-07-24T02:35:36.283Z,99.90
2018-07-24T02:38:04.813Z,99.90
2018-07-24T02:40:33.466Z,99.90
2018-07-24T02:43:02.030Z,99.90
2018-07-24T02:45:30.492Z,99.90
2018-07-24T02:47:58.973Z,99.90
2018-07-24T02:50:27.462Z,99.90
2018-07-24T02:52:56.016Z,99.90
2018-07-24T02:55:24.708Z,99.90
2018-07-24T02:57:53.223Z,99.90
2018-07-24T03:00:22.003Z,99.90
2018-07-24T03:02:51.043Z,99.90
2018-07-24T03:05:19.624Z,99.90
2018-07-24T03:07:48.076Z,99.90
2018-07-24T03:10:16.715Z,99.90
2018-07-24T03:12:45.203Z,99.90
2018-07-24T03:15:13.858Z,99.90
2018-07-24T03:17:42.366Z,99.90
2018-07-24T03:20:10.955Z,99.90
2018-07-24T03:22:39.643Z,99.90
2018-07-24T03:25:08.147Z,99.90
2018-07-24T03:27:36.910Z,99.90
2018-07-24T03:30:06.355Z,99.90
2018-07-24T03:32:35.017Z,99.90
2018-07-24T03:35:03.643Z,99.90
2018-07-24T03:37:32.170Z,99.90
2018-07-24T03:40:00.846Z,99.90
2018-07-24T03:42:29.385Z,99.90
2018-07-24T03:44:58.149Z,99.90
2018-07-24T03:47:26.639Z,99.90
2018-07-24T03:49:55.106Z,99.90
2018-07-24T03:52:23.587Z,99.90
2018-07-24T03:54:52.098Z,99.90
2018-07-24T03:57:20.653Z,99.90
2018-07-24T04:02:17.620Z,99.90
2018-07-24T04:07:14.294Z,99.90
2018-07-24T04:09:42.784Z,99.90
2018-07-24T04:12:11.493Z,99.90
2018-07-24T04:14:40.071Z,99.90
2018-07-24T04:17:08.643Z,99.90
2018-07-24T04:19:37.202Z,99.90
2018-07-24T04:22:05.827Z,99.90
2018-07-24T04:24:34.338Z,99.90
2018-07-24T04:27:02.812Z,99.90
2018-07-24T04:29:31.382Z,99.90
2018-07-24T04:32:00.032Z,99.90
2018-07-24T04:34:28.620Z,99.90
2018-07-24T04:36:57.110Z,99.90
2018-07-24T04:39:25.688Z,99.90
2018-07-24T04:41:54.225Z,99.90
2018-07-24T04:44:22.975Z,99.90
2018-07-24T04:46:51.478Z,99.90
2018-07-24T04:51:48.507Z,99.90
2018-07-24T04:54:17.025Z,99.90
2018-07-24T04:56:45.676Z,99.90
2018-07-24T04:59:14.258Z,99.90
2018-07-24T05:01:42.863Z,99.90
2018-07-24T05:04:11.422Z,99.90
2018-07-24T05:06:40.003Z,99.90
2018-07-24T05:09:11.382Z,99.90
2018-07-24T05:14:09.038Z,99.90
2018-07-24T05:16:37.563Z,99.90
2018-07-24T05:19:06.662Z,99.90
2018-07-24T05:21:35.131Z,99.90
2018-07-24T05:24:03.648Z,99.90
2018-07-24T05:26:32.182Z,99.90
2018-07-24T05:29:00.623Z,99.90
2018-07-24T05:31:29.431Z,99.90
2018-07-24T05:33:58.024Z,99.90
2018-07-24T05:36:26.518Z,99.90
2018-07-24T05:38:54.993Z,99.90
2018-07-24T05:41:23.483Z,99.90
2018-07-24T05:43:52.058Z,99.90
2018-07-24T05:46:20.582Z,99.90
2018-07-24T05:48:49.305Z,99.90
2018-07-24T05:51:17.742Z,99.90
2018-07-24T05:53:46.306Z,99.90
2018-07-24T05:56:14.950Z,99.90
2018-07-24T05:58:43.423Z,99.90
2018-07-24T06:01:11.891Z,99.90
2018-07-24T06:03:40.404Z,99.90
2018-07-24T06:06:08.903Z,99.90
2018-07-24T06:08:37.594Z,99.90
2018-07-24T06:11:06.292Z,99.90
2018-07-24T06:13:35.020Z,99.90
2018-07-24T06:16:03.491Z,99.90
2018-07-24T06:18:32.031Z,99.90
2018-07-24T06:21:00.535Z,99.90
2018-07-24T06:23:29.145Z,99.90
2018-07-24T06:25:57.855Z,99.90
2018-07-24T06:30:54.675Z,99.90
2018-07-24T06:33:23.142Z,99.90
2018-07-24T06:35:51.638Z,99.90
2018-07-24T06:38:20.222Z,99.90
2018-07-24T06:40:48.776Z,99.90
2018-07-24T06:43:17.508Z,99.90
2018-07-24T06:45:45.999Z,99.90
2018-07-24T06:48:14.556Z,99.90
2018-07-24T06:50:43.086Z,99.90
2018-07-24T06:53:12.008Z,99.90
2018-07-24T06:55:40.643Z,99.90
2018-07-24T07:00:37.431Z,99.90
2018-07-24T07:03:06.183Z,99.90
2018-07-24T07:05:34.706Z,99.90
2018-07-24T07:08:03.208Z,99.90
2018-07-24T07:10:31.915Z,99.90
2018-07-24T07:13:00.689Z,99.90
2018-07-24T07:15:29.346Z,99.90
2018-07-24T07:17:57.961Z,99.90
2018-07-24T07:20:26.488Z,99.90
2018-07-24T07:25:23.441Z,99.90
2018-07-24T07:27:51.931Z,99.90
2018-07-24T07:30:20.390Z,99.90
2018-07-24T07:32:49.187Z,99.90
2018-07-24T07:35:17.671Z,99.90
2018-07-24T07:37:46.180Z,99.90
2018-07-24T07:40:14.773Z,99.90
2018-07-24T07:42:43.459Z,99.90
2018-07-24T07:45:12.153Z,99.90
2018-07-24T07:47:40.657Z,99.90
2018-07-24T07:50:09.371Z,99.90
2018-07-24T07:52:37.832Z,99.90
2018-07-24T07:55:06.519Z,99.90
2018-07-24T07:57:35.087Z,99.90
2018-07-24T08:00:03.761Z,99.90
2018-07-24T08:02:32.543Z,99.90
2018-07-24T08:05:01.461Z,99.90
2018-07-24T08:07:30.098Z,99.90
2018-07-24T08:09:58.823Z,99.90
2018-07-24T08:12:27.608Z,99.90
2018-07-24T08:14:56.077Z,99.90
2018-07-24T08:17:24.620Z,99.90
2018-07-24T08:19:53.126Z,99.90
2018-07-24T08:22:21.703Z,99.90
2018-07-24T08:24:50.202Z,99.90
2018-07-24T08:27:18.819Z,99.90
2018-07-24T08:29:47.353Z,99.90
2018-07-24T08:32:16.093Z,99.90
2018-07-24T08:34:44.606Z,99.90
2018-07-24T08:37:13.104Z,99.90
2018-07-24T08:39:41.607Z,99.90
2018-07-24T08:42:10.271Z,99.90
2018-07-24T08:44:38.976Z,99.90
2018-07-24T08:47:07.591Z,99.90
2018-07-24T08:49:36.230Z,99.90
2018-07-24T08:52:04.944Z,99.90
2018-07-24T08:54:33.579Z,99.90
2018-07-24T08:57:02.020Z,99.90
2018-07-24T08:59:30.702Z,99.90
2018-07-24T09:01:59.695Z,99.90
2018-07-24T09:04:28.282Z,99.90
2018-07-24T09:06:57.243Z,99.90
2018-07-24T09:09:25.772Z,99.90
2018-07-24T09:11:54.395Z,99.90
2018-07-24T09:14:22.903Z,99.90
2018-07-24T09:16:51.491Z,99.90
2018-07-24T09:19:20.088Z,99.90
2018-07-24T09:21:48.591Z,99.90
2018-07-24T09:24:17.259Z,99.90
2018-07-24T09:26:45.815Z,99.90
2018-07-24T09:29:14.347Z,99.90
2018-07-24T09:31:42.867Z,99.90
2018-07-24T09:34:11.454Z,99.90
2018-07-24T09:36:40.043Z,99.90
2018-07-24T09:39:09.950Z,99.90
2018-07-24T09:41:39.095Z,99.90
2018-07-24T09:44:07.721Z,99.90
2018-07-24T09:46:36.334Z,99.90
2018-07-24T09:49:04.818Z,99.90
2018-07-24T09:51:33.594Z,99.90
2018-07-24T09:54:02.562Z,99.90
2018-07-24T09:56:31.212Z,99.90
2018-07-24T09:58:59.724Z,99.90
2018-07-24T10:01:29.799Z,99.90
2018-07-24T10:03:58.550Z,99.90
2018-07-24T10:06:27.063Z,99.90
2018-07-24T10:08:55.911Z,99.90
2018-07-24T10:13:52.578Z,99.90
2018-07-24T10:16:21.093Z,99.90
2018-07-24T10:18:49.680Z,99.90
2018-07-24T10:21:18.156Z,99.90
2018-07-24T10:23:46.790Z,99.90
2018-07-24T10:26:15.355Z,99.90
2018-07-24T10:28:44.067Z,99.90
2018-07-24T10:33:40.944Z,99.90
2018-07-24T10:36:09.571Z,99.90
2018-07-24T10:38:38.325Z,99.90
2018-07-24T10:41:07.296Z,99.90
2018-07-24T10:43:36.231Z,99.90
2018-07-24T10:46:04.871Z,99.90
2018-07-24T10:48:33.377Z,99.90
2018-07-24T10:51:01.888Z,99.90
2018-07-24T10:53:30.588Z,99.90
2018-07-24T10:55:59.078Z,99.90
2018-07-24T10:58:27.764Z,99.90
2018-07-24T11:00:56.318Z,99.90
2018-07-24T11:03:24.830Z,99.90
2018-07-24T11:05:53.380Z,99.90
2018-07-24T11:08:21.879Z,99.90
2018-07-24T11:10:50.550Z,99.90
2018-07-24T11:13:19.122Z,99.90
2018-07-24T11:15:47.657Z,99.90
2018-07-24T11:18:16.186Z,99.90
2018-07-24T11:23:13.449Z,99.90
2018-07-24T11:25:41.870Z,99.90
2018-07-24T11:28:10.392Z,99.90
2018-07-24T11:30:38.934Z,99.90
2018-07-24T11:33:07.628Z,99.90
2018-07-24T11:35:36.264Z,99.90
2018-07-24T11:38:04.730Z,99.90
2018-07-24T11:40:33.266Z,99.90
2018-07-24T11:43:02.000Z,99.90
2018-07-24T11:47:57.028Z,99.90
2018-07-24T11:50:25.616Z,99.90
2018-07-24T11:52:54.171Z,99.90
2018-07-24T11:55:22.730Z,99.90
2018-07-24T11:57:51.315Z,99.90
2018-07-24T12:02:48.452Z,99.90
2018-07-24T12:05:17.020Z,99.90
2018-07-24T12:07:45.521Z,99.90
2018-07-24T12:10:14.315Z,99.90
2018-07-24T12:12:42.991Z,99.90
2018-07-24T12:15:11.638Z,99.90
2018-07-24T12:17:40.259Z,99.90
2018-07-24T12:20:08.821Z,99.90
2018-07-24T12:22:37.430Z,99.90
2018-07-24T12:25:06.066Z,99.90
2018-07-24T12:27:34.561Z,99.90
2018-07-24T12:30:03.115Z,99.90
2018-07-24T12:32:31.672Z,99.90
2018-07-24T12:35:00.231Z,99.90
2018-07-24T12:37:28.870Z,99.90
2018-07-24T12:39:57.490Z,99.90
2018-07-24T12:42:26.040Z,99.90
2018-07-24T12:44:54.643Z,99.70
2018-07-24T12:47:23.320Z,99.50
2018-07-24T12:49:51.843Z,99.30
2018-07-24T12:52:20.531Z,99.10
2018-07-24T12:54:49.363Z,98.60
2018-07-24T12:57:17.892Z,98.90
2018-07-24T12:59:46.506Z,98.60
2018-07-24T13:02:15.138Z,99.50
2018-07-24T13:04:43.756Z,98.50
2018-07-24T13:07:12.355Z,99.70
2018-07-24T13:12:09.498Z,99.90
2018-07-24T13:14:38.007Z,99.90
2018-07-24T13:17:06.701Z,99.90
2018-07-24T13:19:35.623Z,99.90
2018-07-24T13:22:04.243Z,99.90
2018-07-24T13:24:33.079Z,99.90
2018-07-24T13:27:01.699Z,99.90
2018-07-24T13:29:30.251Z,99.90
2018-07-24T13:31:59.005Z,99.90
2018-07-24T13:34:27.569Z,99.90
2018-07-24T13:36:56.110Z,99.90
2018-07-24T13:39:24.743Z,99.90
2018-07-24T13:41:53.474Z,99.90
2018-07-24T13:44:22.347Z,99.90
2018-07-24T13:46:50.974Z,99.90
2018-07-24T13:49:19.501Z,99.90
2018-07-24T13:51:48.135Z,99.90
2018-07-24T13:54:16.687Z,99.90
2018-07-24T13:56:45.170Z,99.90
2018-07-24T13:59:13.709Z,99.90
2018-07-24T14:01:42.173Z,99.90
2018-07-24T14:04:11.195Z,99.90
2018-07-24T14:09:10.237Z,99.90
2018-07-24T14:11:39.068Z,99.90
2018-07-24T14:14:08.130Z,99.90
2018-07-24T14:16:36.644Z,99.90
2018-07-24T14:19:05.152Z,99.90
2018-07-24T14:21:33.826Z,99.90
2018-07-24T14:24:02.694Z,99.90
2018-07-24T14:28:59.971Z,99.90
2018-07-24T14:31:28.632Z,99.90
2018-07-24T14:33:57.502Z,99.90
2018-07-24T14:36:26.139Z,99.90
2018-07-24T14:38:54.682Z,99.90
2018-07-24T14:41:23.246Z,99.90
2018-07-24T14:43:51.759Z,99.90
2018-07-24T14:46:20.402Z,99.90
2018-07-24T14:48:48.928Z,99.90
2018-07-24T14:51:17.615Z,99.90
2018-07-24T14:53:46.227Z,99.80
2018-07-24T14:56:14.780Z,99.90
2018-07-24T14:58:43.452Z,99.90
2018-07-24T15:01:11.907Z,99.90
2018-07-24T15:03:40.646Z,99.90
2018-07-24T15:06:09.215Z,99.90
2018-07-24T15:11:06.009Z,98.70
2018-07-24T15:13:34.741Z,99.70
2018-07-24T15:16:03.390Z,99.90
2018-07-24T15:18:32.132Z,99.90
2018-07-24T15:21:00.698Z,99.90
2018-07-24T15:23:29.316Z,99.90
2018-07-24T15:25:57.854Z,99.90
2018-07-24T15:28:26.395Z,99.90
2018-07-24T15:30:54.954Z,99.90
2018-07-24T15:33:23.539Z,99.70
2018-07-24T15:35:52.198Z,99.90
2018-07-24T15:38:20.758Z,99.90
2018-07-24T15:40:49.353Z,99.30
2018-07-24T15:43:17.955Z,99.90
2018-07-24T15:45:46.496Z,99.90
2018-07-24T15:48:15.085Z,99.70
2018-07-24T15:50:43.741Z,99.30
2018-07-24T15:53:12.351Z,99.30
2018-07-24T15:55:40.969Z,98.60
2018-07-24T15:58:09.707Z,97.90
2018-07-24T16:00:38.239Z,98.40
2018-07-24T16:03:07.215Z,98.60
2018-07-24T16:05:36.286Z,98.10
2018-07-24T16:08:04.933Z,97.20
2018-07-24T16:10:33.436Z,97.60
2018-07-24T16:13:01.915Z,98.60
2018-07-24T16:15:30.556Z,98.60
2018-07-24T16:17:59.046Z,98.40
2018-07-24T16:20:27.941Z,99.10
2018-07-24T16:22:56.521Z,98.00
2018-07-24T16:25:25.063Z,99.30
2018-07-24T16:27:53.583Z,99.10
2018-07-24T16:30:22.269Z,98.60
2018-07-24T16:32:50.813Z,99.10
2018-07-24T16:35:19.448Z,99.30
2018-07-24T16:37:47.976Z,98.80
2018-07-24T16:40:16.524Z,99.10
2018-07-24T16:42:45.054Z,97.20
2018-07-24T16:45:13.591Z,98.70
2018-07-24T16:47:42.233Z,99.00
2018-07-24T16:50:11.141Z,98.60
2018-07-24T16:52:39.807Z,97.30
2018-07-24T16:55:08.358Z,97.10
2018-07-24T16:57:37.122Z,99.10
2018-07-24T17:00:06.180Z,98.00
2018-07-24T17:02:34.833Z,98.90
2018-07-24T17:05:03.395Z,97.70
2018-07-24T17:07:32.205Z,97.80
2018-07-24T17:10:01.019Z,98.40
2018-07-24T17:12:29.635Z,96.10
2018-07-24T17:14:58.135Z,96.00
2018-07-24T17:17:26.900Z,96.70
2018-07-24T17:19:55.667Z,95.70
2018-07-24T17:24:52.639Z,97.50
2018-07-24T17:27:21.318Z,97.20
2018-07-24T17:29:49.881Z,96.70
2018-07-24T17:32:18.764Z,97.20
2018-07-24T17:34:47.417Z,96.80
2018-07-24T17:37:16.271Z,97.20
2018-07-24T17:39:44.826Z,98.20
2018-07-24T17:42:13.471Z,98.40
2018-07-24T17:44:42.230Z,97.90
2018-07-24T17:47:10.954Z,98.00
2018-07-24T17:49:39.484Z,98.80
2018-07-24T17:52:08.211Z,98.40
2018-07-24T17:54:36.732Z,99.60
2018-07-24T17:57:05.590Z,97.40
2018-07-24T17:59:34.180Z,99.60
2018-07-24T18:02:02.799Z,98.60
2018-07-24T18:04:31.385Z,99.60
2018-07-24T18:09:28.130Z,99.90
2018-07-24T18:11:56.760Z,99.90
2018-07-24T18:14:25.497Z,99.40
2018-07-24T18:16:54.153Z,99.70
2018-07-24T18:19:22.727Z,99.90
2018-07-24T18:21:51.235Z,99.90
2018-07-24T18:24:19.938Z,99.90
2018-07-24T18:26:48.759Z,99.90
2018-07-24T18:29:17.360Z,99.90
2018-07-24T18:31:46.067Z,99.90
2018-07-24T18:34:14.861Z,99.90
2018-07-24T18:36:43.546Z,99.90
2018-07-24T18:39:12.181Z,99.90
2018-07-24T18:41:40.856Z,99.90
2018-07-24T18:44:09.616Z,99.90
2018-07-24T18:46:38.145Z,99.90
2018-07-24T18:49:06.763Z,99.90
2018-07-24T18:51:35.558Z,99.90
2018-07-24T18:54:04.176Z,99.90
2018-07-24T18:56:33.028Z,99.90
2018-07-24T18:59:01.602Z,99.90
2018-07-24T19:01:30.169Z,99.90
2018-07-24T19:03:58.726Z,99.90
2018-07-24T19:06:27.283Z,99.90
2018-07-24T19:08:55.843Z,99.90
2018-07-24T19:11:24.486Z,99.90
2018-07-24T19:13:53.099Z,99.90
2018-07-24T19:16:21.819Z,99.90
2018-07-24T19:18:50.563Z,99.90
2018-07-24T19:21:19.099Z,99.90
2018-07-24T19:23:47.853Z,99.90
2018-07-24T19:26:16.799Z,99.90
2018-07-24T19:28:45.358Z,99.90
2018-07-24T19:31:13.994Z,99.90
2018-07-24T19:33:42.538Z,99.90
2018-07-24T19:36:11.266Z,99.90
2018-07-24T19:38:39.896Z,99.90
2018-07-24T19:41:08.472Z,99.90
2018-07-24T19:43:36.992Z,99.90
2018-07-24T19:46:05.818Z,99.90
2018-07-24T19:48:34.531Z,99.90
2018-07-24T19:51:03.136Z,99.90
2018-07-24T19:53:32.189Z,99.90
2018-07-24T19:56:01.106Z,99.90
2018-07-24T19:58:29.790Z,99.90
2018-07-24T20:00:58.313Z,99.90
2018-07-24T20:03:26.992Z,99.90
2018-07-24T20:05:55.509Z,99.90
2018-07-24T20:08:24.133Z,99.90
2018-07-24T20:10:52.748Z,99.90
2018-07-24T20:13:21.387Z,99.90
2018-07-24T20:15:49.961Z,99.90
2018-07-24T20:18:18.522Z,99.90
2018-07-24T20:20:47.088Z,99.90
2018-07-24T20:23:15.700Z,99.90
2018-07-24T20:25:44.288Z,99.90
2018-07-24T20:28:12.903Z,99.90
2018-07-24T20:30:41.474Z,99.90
2018-07-24T20:33:09.969Z,99.90
2018-07-24T20:35:38.554Z,99.90
2018-07-24T20:38:07.190Z,99.90
2018-07-24T20:40:35.697Z,99.90
2018-07-24T20:43:04.539Z,99.90
2018-07-24T20:45:33.838Z,99.90
2018-07-24T20:48:02.474Z,99.90
2018-07-24T20:50:31.135Z,99.90
2018-07-24T20:52:59.723Z,99.90
2018-07-24T20:55:28.263Z,99.90
2018-07-24T20:57:56.910Z,99.90
2018-07-24T21:00:25.546Z,99.90
2018-07-24T21:02:54.226Z,99.90
2018-07-24T21:05:22.794Z,99.90
2018-07-24T21:07:51.410Z,99.90
2018-07-24T21:10:20.303Z,99.90
2018-07-24T21:12:49.892Z,99.90
2018-07-24T21:15:19.409Z,99.90
2018-07-24T21:17:48.207Z,99.90
2018-07-24T21:20:16.760Z,99.90
2018-07-24T21:22:45.297Z,99.90
2018-07-24T21:25:14.008Z,99.90
2018-07-24T21:27:42.577Z,99.90
2018-07-24T21:30:11.301Z,99.90
2018-07-24T21:32:39.895Z,99.90
2018-07-24T21:35:08.436Z,99.90
2018-07-24T21:37:36.990Z,99.90
2018-07-24T21:40:05.962Z,99.90
2018-07-24T21:42:34.559Z,99.90
2018-07-24T21:45:03.495Z,99.90
2018-07-24T21:47:32.091Z,99.90
2018-07-24T21:50:00.615Z,99.90
2018-07-24T21:52:29.181Z,99.90
2018-07-24T21:54:57.706Z,99.90
2018-07-24T21:57:26.278Z,99.90
2018-07-24T21:59:54.758Z,99.90
2018-07-24T22:02:23.350Z,99.90
2018-07-24T22:04:52.099Z,99.90
2018-07-24T22:07:20.743Z,99.90
2018-07-24T22:09:49.270Z,99.90
2018-07-24T22:12:17.801Z,99.90
2018-07-24T22:14:46.507Z,99.90
2018-07-24T22:17:15.015Z,99.90
2018-07-24T22:19:43.572Z,99.90
2018-07-24T22:22:12.099Z,99.90
2018-07-24T22:24:40.663Z,99.90
2018-07-24T22:27:09.255Z,99.90
2018-07-24T22:29:37.869Z,99.90
2018-07-24T22:32:06.522Z,99.90
2018-07-24T22:34:35.207Z,99.90
2018-07-24T22:37:03.736Z,99.90
2018-07-24T22:39:32.342Z,99.90
2018-07-24T22:42:00.918Z,99.90
2018-07-24T22:44:29.450Z,99.90
2018-07-24T22:46:57.975Z,99.90
2018-07-24T22:49:26.568Z,99.90
2018-07-24T22:51:55.287Z,99.90
2018-07-24T22:54:23.962Z,99.90
2018-07-24T22:56:52.595Z,99.90
2018-07-24T22:59:21.112Z,99.90
2018-07-24T23:01:49.618Z,99.90
2018-07-24T23:04:18.272Z,99.90
2018-07-24T23:06:46.941Z,99.90
2018-07-24T23:09:15.431Z,99.90
2018-07-24T23:11:43.943Z,99.90
2018-07-24T23:14:12.412Z,99.90
2018-07-24T23:16:41.166Z,99.90
2018-07-24T23:19:09.639Z,99.90
2018-07-24T23:21:38.160Z,99.90
2018-07-24T23:24:06.727Z,99.90
2018-07-24T23:26:35.318Z,99.90
2018-07-24T23:29:03.877Z,99.90
2018-07-24T23:31:32.355Z,99.90
2018-07-24T23:34:00.863Z,99.90
2018-07-24T23:36:29.387Z,99.90
2018-07-24T23:38:57.864Z,99.90
2018-07-24T23:41:26.351Z,99.90
2018-07-24T23:43:54.887Z,99.90
2018-07-24T23:46:23.553Z,99.90
2018-07-24T23:48:52.075Z,99.90
2018-07-24T23:51:20.642Z,99.90
2018-07-24T23:53:49.135Z,99.90
2018-07-24T23:56:17.974Z,99.90
2018-07-24T23:58:46.959Z,99.90
